sensor_id;sensor_type;location;lat;lon;timestamp;pressure;altitude;pressure_sealevel;temperature;humidity
76994;BME280;66749;47.406;18.822;2023-03-14T00:00:19;99561.66;;;8.01;55.91
76994;BME280;66749;47.406;18.822;2023-03-14T00:00:51;99558.16;;;8.02;55.91
76994;BME280;66749;47.406;18.822;2023-03-14T00:01:23;99565.75;;;8.05;55.54
76994;BME280;66749;47.406;18.822;2023-03-14T00:01:55;99556.38;;;8.03;55.59
76994;BME280;66749;47.406;18.822;2023-03-14T00:02:27;99549.31;;;8.05;55.41
76994;BME280;66749;47.406;18.822;2023-03-14T00:02:58;99557.13;;;8.05;55.75
76994;BME280;66749;47.406;18.822;2023-03-14T00:03:30;99550.88;;;8.07;55.73
76994;BME280;66749;47.406;18.822;2023-03-14T00:04:04;99556.91;;;8.08;55.58
76994;BME280;66749;47.406;18.822;2023-03-14T00:04:36;99548.97;;;8.11;55.66
76994;BME280;66749;47.406;18.822;2023-03-14T00:05:09;99555.09;;;8.10;55.63
76994;BME280;66749;47.406;18.822;2023-03-14T00:05:41;99552.50;;;8.10;55.81
76994;BME280;66749;47.406;18.822;2023-03-14T00:06:13;99556.91;;;8.08;55.94
76994;BME280;66749;47.406;18.822;2023-03-14T00:06:45;99555.91;;;8.11;55.86
76994;BME280;66749;47.406;18.822;2023-03-14T00:07:18;99560.09;;;8.13;55.67
76994;BME280;66749;47.406;18.822;2023-03-14T00:07:50;99558.22;;;8.15;55.49
76994;BME280;66749;47.406;18.822;2023-03-14T00:08:21;99558.06;;;8.18;55.46
76994;BME280;66749;47.406;18.822;2023-03-14T00:08:53;99554.72;;;8.16;55.39
76994;BME280;66749;47.406;18.822;2023-03-14T00:09:26;99551.09;;;8.19;55.67
76994;BME280;66749;47.406;18.822;2023-03-14T00:09:58;99558.91;;;8.19;55.37
76994;BME280;66749;47.406;18.822;2023-03-14T00:10:29;99551.94;;;8.19;54.90
76994;BME280;66749;47.406;18.822;2023-03-14T00:11:10;99546.63;;;8.21;55.19
76994;BME280;66749;47.406;18.822;2023-03-14T00:11:42;99547.78;;;8.17;55.48
76994;BME280;66749;47.406;18.822;2023-03-14T00:12:13;99557.22;;;8.18;55.41
76994;BME280;66749;47.406;18.822;2023-03-14T00:12:46;99545.81;;;8.20;55.30
76994;BME280;66749;47.406;18.822;2023-03-14T00:13:17;99549.34;;;8.19;54.91
76994;BME280;66749;47.406;18.822;2023-03-14T00:13:50;99548.31;;;8.22;55.15
76994;BME280;66749;47.406;18.822;2023-03-14T00:14:22;99546.75;;;8.19;55.37
76994;BME280;66749;47.406;18.822;2023-03-14T00:14:54;99564.19;;;8.17;55.47
76994;BME280;66749;47.406;18.822;2023-03-14T00:15:26;99545.06;;;8.18;55.29
76994;BME280;66749;47.406;18.822;2023-03-14T00:16:03;99552.66;;;8.21;55.29
76994;BME280;66749;47.406;18.822;2023-03-14T00:16:35;99548.59;;;8.17;55.56
76994;BME280;66749;47.406;18.822;2023-03-14T00:17:07;99545.06;;;8.18;55.41
76994;BME280;66749;47.406;18.822;2023-03-14T00:17:38;99542.47;;;8.18;55.34
76994;BME280;66749;47.406;18.822;2023-03-14T00:18:10;99534.56;;;8.20;55.40
76994;BME280;66749;47.406;18.822;2023-03-14T00:18:42;99535.31;;;8.22;55.47
76994;BME280;66749;47.406;18.822;2023-03-14T00:19:14;99536.34;;;8.19;55.46
76994;BME280;66749;47.406;18.822;2023-03-14T00:19:45;99535.78;;;8.14;55.90
76994;BME280;66749;47.406;18.822;2023-03-14T00:20:17;99530.31;;;8.19;55.82
76994;BME280;66749;47.406;18.822;2023-03-14T00:20:49;99528.44;;;8.21;55.78
76994;BME280;66749;47.406;18.822;2023-03-14T00:21:21;99530.56;;;8.14;55.62
76994;BME280;66749;47.406;18.822;2023-03-14T00:21:52;99536.59;;;8.15;55.60
76994;BME280;66749;47.406;18.822;2023-03-14T00:22:24;99526.31;;;8.13;55.62
76994;BME280;66749;47.406;18.822;2023-03-14T00:22:56;99527.97;;;8.14;55.85
76994;BME280;66749;47.406;18.822;2023-03-14T00:23:29;99528.75;;;8.16;55.78
76994;BME280;66749;47.406;18.822;2023-03-14T00:24:01;99525.28;;;8.16;55.94
76994;BME280;66749;47.406;18.822;2023-03-14T00:24:32;99522.69;;;8.16;55.70
76994;BME280;66749;47.406;18.822;2023-03-14T00:25:05;99523.91;;;8.10;55.83
76994;BME280;66749;47.406;18.822;2023-03-14T00:25:37;99525.19;;;8.03;56.51
76994;BME280;66749;47.406;18.822;2023-03-14T00:26:11;99524.28;;;8.04;56.15
76994;BME280;66749;47.406;18.822;2023-03-14T00:26:43;99510.44;;;8.03;55.70
76994;BME280;66749;47.406;18.822;2023-03-14T00:27:15;99515.34;;;8.08;55.93
76994;BME280;66749;47.406;18.822;2023-03-14T00:27:46;99518.97;;;8.05;55.68
76994;BME280;66749;47.406;18.822;2023-03-14T00:28:18;99507.56;;;8.08;55.85
76994;BME280;66749;47.406;18.822;2023-03-14T00:28:54;99514.63;;;8.06;55.95
76994;BME280;66749;47.406;18.822;2023-03-14T00:29:26;99520.75;;;8.05;55.70
76994;BME280;66749;47.406;18.822;2023-03-14T00:29:58;99514.91;;;8.01;55.80
76994;BME280;66749;47.406;18.822;2023-03-14T00:30:30;99513.31;;;7.99;55.84
76994;BME280;66749;47.406;18.822;2023-03-14T00:31:03;99509.78;;;8.00;55.79
76994;BME280;66749;47.406;18.822;2023-03-14T00:31:35;99504.41;;;8.03;56.13
76994;BME280;66749;47.406;18.822;2023-03-14T00:32:07;99515.63;;;8.03;56.17
76994;BME280;66749;47.406;18.822;2023-03-14T00:32:39;99504.31;;;8.04;55.97
76994;BME280;66749;47.406;18.822;2023-03-14T00:33:11;99520.16;;;8.00;56.41
76994;BME280;66749;47.406;18.822;2023-03-14T00:33:44;99521.56;;;7.91;56.93
76994;BME280;66749;47.406;18.822;2023-03-14T00:34:16;99518.13;;;7.91;56.64
76994;BME280;66749;47.406;18.822;2023-03-14T00:34:47;99509.25;;;7.95;56.63
76994;BME280;66749;47.406;18.822;2023-03-14T00:35:19;99518.84;;;7.93;56.47
76994;BME280;66749;47.406;18.822;2023-03-14T00:36:00;99515.44;;;7.92;56.46
76994;BME280;66749;47.406;18.822;2023-03-14T00:36:32;99508.66;;;7.90;56.64
76994;BME280;66749;47.406;18.822;2023-03-14T00:37:03;99512.94;;;7.91;56.52
76994;BME280;66749;47.406;18.822;2023-03-14T00:37:35;99503.22;;;7.94;56.53
76994;BME280;66749;47.406;18.822;2023-03-14T00:38:07;99505.72;;;7.96;56.18
76994;BME280;66749;47.406;18.822;2023-03-14T00:38:40;99502.44;;;7.92;56.39
76994;BME280;66749;47.406;18.822;2023-03-14T00:39:12;99504.03;;;7.95;56.70
76994;BME280;66749;47.406;18.822;2023-03-14T00:39:43;99502.53;;;7.91;56.85
76994;BME280;66749;47.406;18.822;2023-03-14T00:40:15;99508.66;;;7.90;56.87
76994;BME280;66749;47.406;18.822;2023-03-14T00:40:47;99504.31;;;7.90;56.86
76994;BME280;66749;47.406;18.822;2023-03-14T00:41:22;99506.16;;;7.88;57.01
76994;BME280;66749;47.406;18.822;2023-03-14T00:41:54;99505.88;;;7.93;57.01
76994;BME280;66749;47.406;18.822;2023-03-14T00:42:26;99497.53;;;7.88;56.67
76994;BME280;66749;47.406;18.822;2023-03-14T00:42:58;99504.31;;;7.90;56.63
76994;BME280;66749;47.406;18.822;2023-03-14T00:43:30;99497.53;;;7.88;56.50
76994;BME280;66749;47.406;18.822;2023-03-14T00:44:02;99501.59;;;7.92;56.72
76994;BME280;66749;47.406;18.822;2023-03-14T00:44:33;99500.88;;;7.90;56.81
76994;BME280;66749;47.406;18.822;2023-03-14T00:45:06;99496.50;;;7.90;56.66
76994;BME280;66749;47.406;18.822;2023-03-14T00:45:39;99493.91;;;7.90;57.09
76994;BME280;66749;47.406;18.822;2023-03-14T00:46:11;99501.97;;;7.86;57.28
76994;BME280;66749;47.406;18.822;2023-03-14T00:46:43;99510.53;;;7.88;57.00
76994;BME280;66749;47.406;18.822;2023-03-14T00:47:14;99499.56;;;7.83;57.21
76994;BME280;66749;47.406;18.822;2023-03-14T00:47:46;99506.25;;;7.87;57.19
76994;BME280;66749;47.406;18.822;2023-03-14T00:48:19;99494.72;;;7.76;57.07
76994;BME280;66749;47.406;18.822;2023-03-14T00:48:51;99503.72;;;7.85;56.88
76994;BME280;66749;47.406;18.822;2023-03-14T00:49:23;99505.44;;;7.86;57.34
76994;BME280;66749;47.406;18.822;2023-03-14T00:49:55;99500.13;;;7.88;57.00
76994;BME280;66749;47.406;18.822;2023-03-14T00:50:26;99497.78;;;7.83;57.13
76994;BME280;66749;47.406;18.822;2023-03-14T00:50:58;99503.09;;;7.82;57.29
76994;BME280;66749;47.406;18.822;2023-03-14T00:51:30;99494.28;;;7.84;57.14
76994;BME280;66749;47.406;18.822;2023-03-14T00:52:01;99490.84;;;7.84;56.76
76994;BME280;66749;47.406;18.822;2023-03-14T00:52:33;99497.53;;;7.88;57.11
76994;BME280;66749;47.406;18.822;2023-03-14T00:53:05;99496.03;;;7.84;56.98
76994;BME280;66749;47.406;18.822;2023-03-14T00:53:38;99501.13;;;7.85;56.93
76994;BME280;66749;47.406;18.822;2023-03-14T00:54:10;99503.72;;;7.85;56.85
76994;BME280;66749;47.406;18.822;2023-03-14T00:54:42;99503.81;;;7.84;56.94
76994;BME280;66749;47.406;18.822;2023-03-14T00:55:13;99504.75;;;7.83;57.22
76994;BME280;66749;47.406;18.822;2023-03-14T00:55:45;99504.94;;;7.79;57.16
76994;BME280;66749;47.406;18.822;2023-03-14T00:56:17;99506.41;;;7.84;57.01
76994;BME280;66749;47.406;18.822;2023-03-14T00:56:49;99504.75;;;7.83;57.29
76994;BME280;66749;47.406;18.822;2023-03-14T00:57:20;99505.50;;;7.85;57.21
76994;BME280;66749;47.406;18.822;2023-03-14T00:57:52;99495.09;;;7.85;56.79
76994;BME280;66749;47.406;18.822;2023-03-14T00:58:24;99492.50;;;7.85;57.29
76994;BME280;66749;47.406;18.822;2023-03-14T00:58:56;99503.34;;;7.77;57.42
76994;BME280;66749;47.406;18.822;2023-03-14T00:59:27;99494.56;;;7.79;57.50
76994;BME280;66749;47.406;18.822;2023-03-14T00:59:59;99491.97;;;7.79;57.26
76994;BME280;66749;47.406;18.822;2023-03-14T01:00:31;99486.00;;;7.77;57.19
76994;BME280;66749;47.406;18.822;2023-03-14T01:01:12;99488.88;;;7.73;57.34
76994;BME280;66749;47.406;18.822;2023-03-14T01:01:44;99490.56;;;7.74;57.40
76994;BME280;66749;47.406;18.822;2023-03-14T01:02:16;99494.72;;;7.76;57.79
76994;BME280;66749;47.406;18.822;2023-03-14T01:02:48;99492.03;;;7.78;57.63
76994;BME280;66749;47.406;18.822;2023-03-14T01:03:20;99496.47;;;7.76;57.91
76994;BME280;66749;47.406;18.822;2023-03-14T01:03:54;99487.13;;;7.73;57.39
76994;BME280;66749;47.406;18.822;2023-03-14T01:04:27;99488.06;;;7.72;57.39
76994;BME280;66749;47.406;18.822;2023-03-14T01:04:58;99493.78;;;7.77;57.48
76994;BME280;66749;47.406;18.822;2023-03-14T01:05:30;99482.50;;;7.78;57.33
76994;BME280;66749;47.406;18.822;2023-03-14T01:06:07;99484.53;;;7.73;57.76
76994;BME280;66749;47.406;18.822;2023-03-14T01:06:39;99491.38;;;7.74;57.76
76994;BME280;66749;47.406;18.822;2023-03-14T01:07:11;99483.41;;;7.77;57.81
76994;BME280;66749;47.406;18.822;2023-03-14T01:07:43;99485.09;;;7.78;57.27
76994;BME280;66749;47.406;18.822;2023-03-14T01:08:15;99478.59;;;7.71;57.68
76994;BME280;66749;47.406;18.822;2023-03-14T01:08:47;99475.31;;;7.68;57.49
76994;BME280;66749;47.406;18.822;2023-03-14T01:09:19;99481.94;;;7.73;57.69
76994;BME280;66749;47.406;18.822;2023-03-14T01:09:53;99481.09;;;7.73;57.51
76994;BME280;66749;47.406;18.822;2023-03-14T01:10:25;99476.06;;;7.70;57.56
76994;BME280;66749;47.406;18.822;2023-03-14T01:10:57;99473.56;;;7.68;57.90
76994;BME280;66749;47.406;18.822;2023-03-14T01:11:31;99476.91;;;7.70;57.87
76994;BME280;66749;47.406;18.822;2023-03-14T01:12:03;99474.31;;;7.70;57.89
76994;BME280;66749;47.406;18.822;2023-03-14T01:12:35;99466.72;;;7.67;57.70
76994;BME280;66749;47.406;18.822;2023-03-14T01:13:07;99483.03;;;7.69;57.46
76994;BME280;66749;47.406;18.822;2023-03-14T01:13:40;99480.44;;;7.69;57.79
76994;BME280;66749;47.406;18.822;2023-03-14T01:14:12;99484.88;;;7.67;58.19
76994;BME280;66749;47.406;18.822;2023-03-14T01:14:44;99475.53;;;7.65;57.69
76994;BME280;66749;47.406;18.822;2023-03-14T01:15:16;99480.81;;;7.63;57.58
76994;BME280;66749;47.406;18.822;2023-03-14T01:15:48;99472.72;;;7.68;57.69
76994;BME280;66749;47.406;18.822;2023-03-14T01:16:21;99471.16;;;7.65;57.83
76994;BME280;66749;47.406;18.822;2023-03-14T01:16:53;99477.28;;;7.64;57.78
76994;BME280;66749;47.406;18.822;2023-03-14T01:17:25;99471.41;;;7.61;57.60
76994;BME280;66749;47.406;18.822;2023-03-14T01:17:56;99461.13;;;7.59;57.87
76994;BME280;66749;47.406;18.822;2023-03-14T01:18:28;99466.31;;;7.59;58.20
76994;BME280;66749;47.406;18.822;2023-03-14T01:19:00;99463.81;;;7.58;58.41
76994;BME280;66749;47.406;18.822;2023-03-14T01:19:32;99466.31;;;7.59;57.81
76994;BME280;66749;47.406;18.822;2023-03-14T01:20:05;99467.25;;;7.58;58.54
76994;BME280;66749;47.406;18.822;2023-03-14T01:20:40;99460.41;;;7.57;58.21
76994;BME280;66749;47.406;18.822;2023-03-14T01:21:17;99454.44;;;7.55;58.55
76994;BME280;66749;47.406;18.822;2023-03-14T01:21:49;99448.50;;;7.53;58.12
76994;BME280;66749;47.406;18.822;2023-03-14T01:22:21;99447.47;;;7.56;58.29
76994;BME280;66749;47.406;18.822;2023-03-14T01:22:53;99444.06;;;7.55;57.53
76994;BME280;66749;47.406;18.822;2023-03-14T01:23:25;99440.38;;;7.59;57.67
76994;BME280;66749;47.406;18.822;2023-03-14T01:23:58;99447.31;;;7.59;57.98
76994;BME280;66749;47.406;18.822;2023-03-14T01:24:30;99450.00;;;7.57;58.38
76994;BME280;66749;47.406;18.822;2023-03-14T01:25:02;99437.19;;;7.54;58.08
76994;BME280;66749;47.406;18.822;2023-03-14T01:25:34;99443.31;;;7.53;58.43
76994;BME280;66749;47.406;18.822;2023-03-14T01:26:09;99449.34;;;7.54;57.96
76994;BME280;66749;47.406;18.822;2023-03-14T01:26:41;99438.03;;;7.55;58.42
76994;BME280;66749;47.406;18.822;2023-03-14T01:27:13;99442.28;;;7.56;58.08
76994;BME280;66749;47.406;18.822;2023-03-14T01:27:45;99435.38;;;7.56;58.09
76994;BME280;66749;47.406;18.822;2023-03-14T01:28:17;99439.97;;;7.51;58.56
76994;BME280;66749;47.406;18.822;2023-03-14T01:28:50;99441.84;;;7.49;58.54
76994;BME280;66749;47.406;18.822;2023-03-14T01:29:22;99432.44;;;7.46;58.68
76994;BME280;66749;47.406;18.822;2023-03-14T01:29:53;99438.56;;;7.45;58.41
76994;BME280;66749;47.406;18.822;2023-03-14T01:30:25;99428.03;;;7.48;58.69
76994;BME280;66749;47.406;18.822;2023-03-14T01:31:03;99430.44;;;7.51;58.43
76994;BME280;66749;47.406;18.822;2023-03-14T01:31:35;99424.31;;;7.53;57.71
76994;BME280;66749;47.406;18.822;2023-03-14T01:32:07;99438.13;;;7.53;58.48
76994;BME280;66749;47.406;18.822;2023-03-14T01:32:38;99431.53;;;7.47;58.95
76994;BME280;66749;47.406;18.822;2023-03-14T01:33:10;99417.81;;;7.45;58.20
76994;BME280;66749;47.406;18.822;2023-03-14T01:33:45;99421.13;;;7.47;58.96
76994;BME280;66749;47.406;18.822;2023-03-14T01:34:16;99419.47;;;7.46;58.23
76994;BME280;66749;47.406;18.822;2023-03-14T01:34:48;99428.19;;;7.45;58.43
76994;BME280;66749;47.406;18.822;2023-03-14T01:35:20;99420.59;;;7.42;58.48
76994;BME280;66749;47.406;18.822;2023-03-14T01:35:51;99417.16;;;7.42;58.37
76994;BME280;66749;47.406;18.822;2023-03-14T01:36:23;99439.59;;;7.43;58.82
76994;BME280;66749;47.406;18.822;2023-03-14T01:36:55;99427.63;;;7.40;58.87
76994;BME280;66749;47.406;18.822;2023-03-14T01:37:27;99402.44;;;7.42;58.41
76994;BME280;66749;47.406;18.822;2023-03-14T01:37:58;99405.66;;;7.46;58.81
76994;BME280;66749;47.406;18.822;2023-03-14T01:38:32;99419.66;;;7.43;58.40
76994;BME280;66749;47.406;18.822;2023-03-14T01:39:04;99409.28;;;7.43;58.48
76994;BME280;66749;47.406;18.822;2023-03-14T01:39:37;99410.75;;;7.47;58.68
76994;BME280;66749;47.406;18.822;2023-03-14T01:40:11;99410.75;;;7.47;58.53
76994;BME280;66749;47.406;18.822;2023-03-14T01:40:45;99411.59;;;7.48;58.74
76994;BME280;66749;47.406;18.822;2023-03-14T01:41:24;99403.06;;;7.46;58.08
76994;BME280;66749;47.406;18.822;2023-03-14T01:41:56;99390.81;;;7.48;58.82
76994;BME280;66749;47.406;18.822;2023-03-14T01:42:28;99395.19;;;7.47;58.53
76994;BME280;66749;47.406;18.822;2023-03-14T01:43:13;99404.94;;;7.44;58.96
76994;BME280;66749;47.406;18.822;2023-03-14T01:43:45;99413.44;;;7.46;58.56
76994;BME280;66749;47.406;18.822;2023-03-14T01:44:17;99409.84;;;7.48;58.12
76994;BME280;66749;47.406;18.822;2023-03-14T01:44:57;99400.22;;;7.50;58.78
76994;BME280;66749;47.406;18.822;2023-03-14T01:47:10;99388.06;;;7.51;58.39
76994;BME280;66749;47.406;18.822;2023-03-14T01:47:42;99389.72;;;7.52;58.07
76994;BME280;66749;47.406;18.822;2023-03-14T01:48:13;99390.66;;;7.51;58.32
76994;BME280;66749;47.406;18.822;2023-03-14T01:50:09;99389.09;;;7.48;58.85
76994;BME280;66749;47.406;18.822;2023-03-14T01:50:43;99390.75;;;7.49;58.16
76994;BME280;66749;47.406;18.822;2023-03-14T01:51:24;99377.94;;;7.46;58.78
76994;BME280;66749;47.406;18.822;2023-03-14T01:52:02;99381.31;;;7.48;58.97
76994;BME280;66749;47.406;18.822;2023-03-14T01:52:40;99382.31;;;7.46;58.26
76994;BME280;66749;47.406;18.822;2023-03-14T01:53:14;99380.44;;;7.48;59.07
76994;BME280;66749;47.406;18.822;2023-03-14T01:53:48;99384.72;;;7.49;58.49
76994;BME280;66749;47.406;18.822;2023-03-14T01:54:35;99371.91;;;7.46;58.53
76994;BME280;66749;47.406;18.822;2023-03-14T01:55:13;99374.63;;;7.44;58.74
76994;BME280;66749;47.406;18.822;2023-03-14T01:55:50;99375.44;;;7.45;58.83
76994;BME280;66749;47.406;18.822;2023-03-14T01:56:24;99373.78;;;7.44;58.85
76994;BME280;66749;47.406;18.822;2023-03-14T01:57:05;99367.91;;;7.40;59.32
76994;BME280;66749;47.406;18.822;2023-03-14T01:57:48;99370.50;;;7.40;58.86
76994;BME280;66749;47.406;18.822;2023-03-14T01:58:21;99357.72;;;7.37;58.67
76994;BME280;66749;47.406;18.822;2023-03-14T01:58:53;99357.72;;;7.37;59.18
76994;BME280;66749;47.406;18.822;2023-03-14T01:59:26;99369.63;;;7.41;59.12
76994;BME280;66749;47.406;18.822;2023-03-14T02:00:07;99363.41;;;7.44;58.75
76994;BME280;66749;47.406;18.822;2023-03-14T02:00:46;99359.22;;;7.41;58.96
76994;BME280;66749;47.406;18.822;2023-03-14T02:01:21;99354.50;;;7.34;58.89
76994;BME280;66749;47.406;18.822;2023-03-14T02:01:56;99356.69;;;7.40;58.60
76994;BME280;66749;47.406;18.822;2023-03-14T02:02:29;99349.69;;;7.42;58.61
76994;BME280;66749;47.406;18.822;2023-03-14T02:03:06;99349.84;;;7.39;59.13
76994;BME280;66749;47.406;18.822;2023-03-14T02:03:50;99351.91;;;7.34;59.20
76994;BME280;66749;47.406;18.822;2023-03-14T02:04:23;99363.19;;;7.33;59.83
76994;BME280;66749;47.406;18.822;2023-03-14T02:04:58;99357.63;;;7.24;59.91
76994;BME280;66749;47.406;18.822;2023-03-14T02:05:38;99356.78;;;7.24;59.54
76994;BME280;66749;47.406;18.822;2023-03-14T02:06:11;99344.28;;;7.31;59.45
76994;BME280;66749;47.406;18.822;2023-03-14T02:06:51;99349.31;;;7.34;59.76
76994;BME280;66749;47.406;18.822;2023-03-14T02:07:33;99356.44;;;7.30;59.79
76994;BME280;66749;47.406;18.822;2023-03-14T02:08:10;99354.66;;;7.31;59.18
76994;BME280;66749;47.406;18.822;2023-03-14T02:08:42;99350.59;;;7.27;59.45
76994;BME280;66749;47.406;18.822;2023-03-14T02:09:15;99350.59;;;7.27;59.69
76994;BME280;66749;47.406;18.822;2023-03-14T02:09:48;99354.28;;;7.22;59.49
76994;BME280;66749;47.406;18.822;2023-03-14T02:10:23;99350.75;;;7.23;60.24
76994;BME280;66749;47.406;18.822;2023-03-14T02:10:56;99344.84;;;7.21;59.68
76994;BME280;66749;47.406;18.822;2023-03-14T02:11:29;99348.84;;;7.27;59.88
76994;BME280;66749;47.406;18.822;2023-03-14T02:12:01;99342.81;;;7.27;59.71
76994;BME280;66749;47.406;18.822;2023-03-14T02:12:34;99329.06;;;7.24;59.95
76994;BME280;66749;47.406;18.822;2023-03-14T02:13:07;99332.03;;;7.33;59.59
76994;BME280;66749;47.406;18.822;2023-03-14T02:13:38;99341.53;;;7.34;60.16
76994;BME280;66749;47.406;18.822;2023-03-14T02:14:22;99346.72;;;7.34;59.64
76994;BME280;66749;47.406;18.822;2023-03-14T02:14:56;99347.53;;;7.34;59.73
76994;BME280;66749;47.406;18.822;2023-03-14T02:15:28;99344.75;;;7.37;59.57
76994;BME280;66749;47.406;18.822;2023-03-14T02:16:00;99343.00;;;7.38;59.37
76994;BME280;66749;47.406;18.822;2023-03-14T02:16:34;99335.88;;;7.41;59.47
76994;BME280;66749;47.406;18.822;2023-03-14T02:17:07;99342.72;;;7.42;59.39
76994;BME280;66749;47.406;18.822;2023-03-14T02:17:42;99340.78;;;7.46;59.47
76994;BME280;66749;47.406;18.822;2023-03-14T02:18:16;99339.09;;;7.45;59.50
76994;BME280;66749;47.406;18.822;2023-03-14T02:18:48;99345.78;;;7.49;59.45
76994;BME280;66749;47.406;18.822;2023-03-14T02:19:31;99336.16;;;7.51;58.78
76994;BME280;66749;47.406;18.822;2023-03-14T02:20:55;99330.66;;;7.56;59.17
76994;BME280;66749;47.406;18.822;2023-03-14T02:22:15;99335.13;;;7.54;59.20
76994;BME280;66749;47.406;18.822;2023-03-14T02:22:47;99334.19;;;7.55;58.60
76994;BME280;66749;47.406;18.822;2023-03-14T02:25:38;99340.59;;;7.49;59.84
76994;BME280;66749;47.406;18.822;2023-03-14T02:26:20;99343.25;;;7.47;59.52
76994;BME280;66749;47.406;18.822;2023-03-14T02:27:16;99335.56;;;7.46;59.43
76994;BME280;66749;47.406;18.822;2023-03-14T02:27:49;99330.38;;;7.46;59.50
76994;BME280;66749;47.406;18.822;2023-03-14T02:28:21;99329.56;;;7.45;59.53
76994;BME280;66749;47.406;18.822;2023-03-14T02:28:53;99327.88;;;7.44;59.69
76994;BME280;66749;47.406;18.822;2023-03-14T02:29:25;99336.72;;;7.42;59.40
76994;BME280;66749;47.406;18.822;2023-03-14T02:30:10;99334.09;;;7.42;59.51
76994;BME280;66749;47.406;18.822;2023-03-14T02:30:42;99335.22;;;7.38;59.75
76994;BME280;66749;47.406;18.822;2023-03-14T02:31:14;99318.59;;;7.40;59.73
76994;BME280;66749;47.406;18.822;2023-03-14T02:31:46;99321.19;;;7.40;59.55
76994;BME280;66749;47.406;18.822;2023-03-14T02:32:20;99323.72;;;7.42;60.03
76994;BME280;66749;47.406;18.822;2023-03-14T02:33:04;99320.75;;;7.34;60.08
76994;BME280;66749;47.406;18.822;2023-03-14T02:33:38;99326.94;;;7.31;59.79
76994;BME280;66749;47.406;18.822;2023-03-14T02:34:10;99318.34;;;7.31;59.88
76994;BME280;66749;47.406;18.822;2023-03-14T02:34:45;99324.44;;;7.30;59.94
76994;BME280;66749;47.406;18.822;2023-03-14T02:35:23;99325.03;;;7.35;59.96
76994;BME280;66749;47.406;18.822;2023-03-14T02:36:08;99314.53;;;7.36;59.87
76994;BME280;66749;47.406;18.822;2023-03-14T02:36:41;99303.50;;;7.33;59.69
76994;BME280;66749;47.406;18.822;2023-03-14T02:37:16;99309.44;;;7.35;60.13
76994;BME280;66749;47.406;18.822;2023-03-14T02:37:59;99314.06;;;7.30;60.24
76994;BME280;66749;47.406;18.822;2023-03-14T02:39:45;99313.13;;;7.31;60.16
76994;BME280;66749;47.406;18.822;2023-03-14T02:40:17;99319.16;;;7.31;60.46
76994;BME280;66749;47.406;18.822;2023-03-14T02:40:49;99326.13;;;7.31;60.24
76994;BME280;66749;47.406;18.822;2023-03-14T02:41:21;99315.00;;;7.29;59.95
76994;BME280;66749;47.406;18.822;2023-03-14T02:41:53;99317.34;;;7.33;60.00
76994;BME280;66749;47.406;18.822;2023-03-14T02:42:24;99315.75;;;7.31;60.29
76994;BME280;66749;47.406;18.822;2023-03-14T02:42:56;99314.06;;;7.30;60.50
76994;BME280;66749;47.406;18.822;2023-03-14T02:43:28;99320.28;;;7.27;60.04
76994;BME280;66749;47.406;18.822;2023-03-14T02:43:59;99318.53;;;7.28;60.50
76994;BME280;66749;47.406;18.822;2023-03-14T02:44:31;99305.72;;;7.24;60.57
76994;BME280;66749;47.406;18.822;2023-03-14T02:45:43;99299.63;;;7.26;60.26
76994;BME280;66749;47.406;18.822;2023-03-14T02:46:18;99304.06;;;7.23;60.49
76994;BME280;66749;47.406;18.822;2023-03-14T02:46:51;99312.13;;;7.19;60.65
76994;BME280;66749;47.406;18.822;2023-03-14T02:47:28;99316.28;;;7.21;60.72
76994;BME280;66749;47.406;18.822;2023-03-14T02:48:06;99305.28;;;7.18;61.15
76994;BME280;66749;47.406;18.822;2023-03-14T02:48:40;99307.88;;;7.18;60.63
76994;BME280;66749;47.406;18.822;2023-03-14T02:49:14;99309.59;;;7.17;60.80
76994;BME280;66749;47.406;18.822;2023-03-14T02:49:46;99302.03;;;7.14;61.05
76994;BME280;66749;47.406;18.822;2023-03-14T02:50:22;99292.38;;;7.16;60.88
76994;BME280;66749;47.406;18.822;2023-03-14T02:50:57;99304.41;;;7.17;61.12
76994;BME280;66749;47.406;18.822;2023-03-14T02:51:32;99294.22;;;7.14;61.04
76994;BME280;66749;47.406;18.822;2023-03-14T02:52:04;99296.47;;;7.20;60.91
76994;BME280;66749;47.406;18.822;2023-03-14T02:52:35;99300.09;;;7.18;60.51
76994;BME280;66749;47.406;18.822;2023-03-14T02:53:07;99308.88;;;7.15;61.02
76994;BME280;66749;47.406;18.822;2023-03-14T02:53:39;99294.97;;;7.16;61.28
76994;BME280;66749;47.406;18.822;2023-03-14T02:54:14;99283.50;;;7.20;61.14
76994;BME280;66749;47.406;18.822;2023-03-14T02:54:45;99287.75;;;7.21;60.80
76994;BME280;66749;47.406;18.822;2023-03-14T02:55:26;99299.91;;;7.21;61.39
76994;BME280;66749;47.406;18.822;2023-03-14T02:55:58;99285.25;;;7.20;61.41
76994;BME280;66749;47.406;18.822;2023-03-14T02:56:30;99286.09;;;7.20;61.05
76994;BME280;66749;47.406;18.822;2023-03-14T02:57:02;99285.16;;;7.21;60.94
76994;BME280;66749;47.406;18.822;2023-03-14T02:57:34;99285.78;;;7.25;60.43
76994;BME280;66749;47.406;18.822;2023-03-14T02:58:06;99295.19;;;7.28;61.04
76994;BME280;66749;47.406;18.822;2023-03-14T02:58:38;99285.63;;;7.28;60.62
76994;BME280;66749;47.406;18.822;2023-03-14T02:59:10;99288.78;;;7.33;60.41
76994;BME280;66749;47.406;18.822;2023-03-14T02:59:42;99294.81;;;7.34;60.43
76994;BME280;66749;47.406;18.822;2023-03-14T03:00:13;99291.09;;;7.38;60.19
76994;BME280;66749;47.406;18.822;2023-03-14T03:00:47;99287.75;;;7.36;60.21
76994;BME280;66749;47.406;18.822;2023-03-14T03:01:19;99274.88;;;7.34;60.35
76994;BME280;66749;47.406;18.822;2023-03-14T03:01:51;99291.81;;;7.40;60.44
76994;BME280;66749;47.406;18.822;2023-03-14T03:02:23;99290.72;;;7.44;60.68
76994;BME280;66749;47.406;18.822;2023-03-14T03:02:54;99287.28;;;7.43;59.91
76994;BME280;66749;47.406;18.822;2023-03-14T03:03:26;99288.84;;;7.46;60.35
76994;BME280;66749;47.406;18.822;2023-03-14T03:03:58;99285.53;;;7.44;60.31
76994;BME280;66749;47.406;18.822;2023-03-14T03:04:30;99281.28;;;7.43;60.40
76994;BME280;66749;47.406;18.822;2023-03-14T03:05:01;99270.69;;;7.46;60.05
76994;BME280;66749;47.406;18.822;2023-03-14T03:05:33;99274.94;;;7.47;60.14